Bayerns grosse Airshow

motor veste rechts h240

joomla templates top joomla templates template joomla

Notam

C3641/14 - CUSTOMS AVBL PPR, TEL 0049 9561 92098. 13 NOV 14:46 2014 UNTIL PERM. CREATED: 13 NOV 14:47 2014

Neue Wetteranzeige

Aktuelles Platzwetter Stand 24.06.2017 10:24Z

AvgMinMax
Windrichtung270210290Deg
Windgeschwindigkeit15621kt
Sichtweite>10000m
Temperatur22°C
Taupunkt14°C
Feuchte62%
QNH1016.6hPa
QFE963.1hPa
WolkenSCT040

Aerodrome Terminal Information Service (ATIS) Coburg

METAR
EDQC 241020Z AUTO 24012G22KT 210V270 9999 FEW039 21/14 Q1016=

METAR und TAF der Umgebung

[Quelle: ADDS]
METAR
EDDF 240950Z 24016KT 9999 FEW044 22/09 Q1017 NOSIG =
EDDN 240950Z 27017KT CAVOK 24/11 Q1017 NOSIG =
EDDE 240950Z 26018KT 9999 FEW040 21/11 Q1015 TEMPO 25015G25KT =
TAF
COR EDDF 240557Z 2406/2512 24005KT 9999 BKN035 BECMG 2406/2409 24010KT TEMPO 2410/2417 25015G25KT BECMG 2418/2421 25005KT BECMG 2506/2509 25010KT TEMPO 2510/2512 26015G25KT =
EDDN 240500Z 2406/2506 26010KT CAVOK PROB30 TEMPO 2410/2415 28015G25KT BECMG 2418/2420 24005KT BECMG 2422/2424 12004KT =
EDDE 240500Z 2406/2506 25010KT CAVOK BECMG 2407/2409 26015G25KT BECMG 2415/2417 25008KT =
SR / SS: 03:08 / 19:31 UTC (EDQC 2017-06-24)

Wetterverlauf

Verkehrslandeplatz Coburg Brandensteinsebene
Tower
Zur Brandensteinsebene
96450 Coburg

AeroClub Logo 200px

Aero Club Coburg e. V.
Postfach 11 09
96401 Coburg